Bethlehem, South Dakota
Current Conditions -  °F | °C
As of 11:15 PM on Sunday 25 Jan 2015 (Local Time) from KSPF Reporting Station
Clear Clear  
Wind Chill: 52°   Ceiling: Unl
Heat Index: 52°   Visibility: 10mi
Dew Point: 30°   Wind: 18mph
Humidity: 44%   Direction: 280°W
Pressure: 30.03"   Gusts: 26mph
Location:  44.3°N, 103.48°W
Report Text: KSPF 260615Z AUTO 28016G23KT 10SM CLR 11/M01 A3003 RMK AO2
Loading
Personal Weather Stations






























Interactive Weather Map New forecast layout! Learn more

10-Day Weather Forecast

Advertisements
Track Severe Weather on mobile